createdAt,value
2022-11-08T00:01:31.444Z,99.90
2022-11-08T00:03:33.104Z,99.90
2022-11-08T00:05:53.509Z,99.90
2022-11-08T00:08:13.752Z,99.90
2022-11-08T00:10:34.318Z,99.90
2022-11-08T00:12:54.343Z,99.90
2022-11-08T00:14:56.206Z,99.90
2022-11-08T00:16:57.951Z,99.90
2022-11-08T00:18:59.531Z,99.90
2022-11-08T00:21:05.714Z,99.90
2022-11-08T00:23:07.315Z,99.90
2022-11-08T00:25:09.983Z,99.90
2022-11-08T00:27:12.801Z,99.90
2022-11-08T00:29:14.402Z,99.90
2022-11-08T00:31:16.043Z,99.90
2022-11-08T00:33:17.705Z,99.90
2022-11-08T00:35:19.294Z,99.90
2022-11-08T00:37:21.657Z,99.90
2022-11-08T00:39:23.304Z,99.90
2022-11-08T00:41:24.879Z,99.90
2022-11-08T00:43:26.527Z,99.90
2022-11-08T00:45:28.103Z,99.90
2022-11-08T00:47:29.684Z,99.90
2022-11-08T00:49:31.429Z,99.90
2022-11-08T00:51:33.152Z,99.90
2022-11-08T00:53:36.880Z,99.90
2022-11-08T00:55:38.458Z,99.90
2022-11-08T00:57:58.479Z,99.90
2022-11-08T01:00:00.943Z,99.90
2022-11-08T01:02:02.717Z,99.90
2022-11-08T01:04:04.724Z,99.90
2022-11-08T01:06:07.275Z,99.90
2022-11-08T01:08:10.130Z,99.90
2022-11-08T01:10:11.871Z,99.90
2022-11-08T01:12:13.443Z,99.90
2022-11-08T01:14:15.167Z,99.90
2022-11-08T01:16:23.993Z,99.90
2022-11-08T01:18:25.614Z,99.90
2022-11-08T01:20:27.318Z,99.90
2022-11-08T01:22:28.923Z,99.90
2022-11-08T01:24:30.554Z,99.90
2022-11-08T01:26:32.199Z,99.90
2022-11-08T01:28:34.056Z,99.90
2022-11-08T01:30:37.143Z,99.90
2022-11-08T01:32:38.747Z,99.90
2022-11-08T01:34:40.490Z,99.90
2022-11-08T01:36:42.083Z,99.90
2022-11-08T01:38:43.925Z,99.90
2022-11-08T01:40:46.247Z,99.90
2022-11-08T01:42:47.856Z,99.90
2022-11-08T01:44:58.868Z,99.90
2022-11-08T01:47:00.795Z,99.90
2022-11-08T01:49:05.261Z,99.90
2022-11-08T01:51:07.974Z,99.90
2022-11-08T01:53:09.814Z,99.90
2022-11-08T01:55:17.337Z,99.90
2022-11-08T01:57:25.068Z,99.90
2022-11-08T01:59:26.758Z,99.90
2022-11-08T02:01:28.499Z,99.90
2022-11-08T02:03:32.825Z,99.90
2022-11-08T02:05:34.643Z,99.90
2022-11-08T02:07:36.308Z,99.90
2022-11-08T02:09:38.931Z,99.90
2022-11-08T02:11:41.302Z,99.90
2022-11-08T02:13:43.060Z,99.90
2022-11-08T02:15:45.076Z,99.90
2022-11-08T02:17:46.734Z,99.90
2022-11-08T02:19:49.847Z,99.90
2022-11-08T02:22:02.783Z,99.90
2022-11-08T02:24:08.057Z,99.90
2022-11-08T02:26:09.662Z,99.90
2022-11-08T02:28:11.244Z,99.90
2022-11-08T02:30:13.200Z,99.90
2022-11-08T02:32:14.984Z,99.90
2022-11-08T02:34:16.754Z,99.90
2022-11-08T02:36:22.162Z,99.90
2022-11-08T02:38:25.062Z,99.90
2022-11-08T02:40:26.634Z,99.90
2022-11-08T02:42:28.436Z,99.90
2022-11-08T02:44:30.138Z,99.90
2022-11-08T02:46:31.730Z,99.90
2022-11-08T02:48:33.367Z,99.90
2022-11-08T02:50:35.198Z,99.90
2022-11-08T02:52:36.794Z,99.90
2022-11-08T02:54:38.744Z,99.90
2022-11-08T02:56:40.388Z,99.90
2022-11-08T02:58:41.987Z,99.90
2022-11-08T03:00:43.758Z,99.90
2022-11-08T03:02:45.416Z,99.90
2022-11-08T03:04:47.118Z,99.90
2022-11-08T03:06:48.703Z,99.90
2022-11-08T03:08:50.301Z,99.90
2022-11-08T03:10:51.907Z,99.90
2022-11-08T03:13:01.258Z,99.90
2022-11-08T03:15:03.292Z,99.90
2022-11-08T03:17:05.235Z,99.90
2022-11-08T03:19:06.812Z,99.90
2022-11-08T03:21:08.395Z,99.90
2022-11-08T03:23:10.089Z,99.90
2022-11-08T03:25:11.950Z,99.90
2022-11-08T03:27:15.219Z,99.90
2022-11-08T03:29:16.842Z,99.90
2022-11-08T03:31:18.406Z,99.90
2022-11-08T03:33:20.826Z,99.90
2022-11-08T03:35:22.437Z,99.90
2022-11-08T03:37:24.212Z,99.90
2022-11-08T03:39:25.851Z,99.90
2022-11-08T03:41:27.541Z,99.90
2022-11-08T03:43:29.141Z,99.90
2022-11-08T03:45:30.769Z,99.90
2022-11-08T03:47:36.771Z,99.90
2022-11-08T03:49:38.445Z,99.90
2022-11-08T03:51:40.087Z,99.90
2022-11-08T03:53:41.752Z,99.90
2022-11-08T03:55:43.583Z,99.90
2022-11-08T03:57:45.869Z,99.90
2022-11-08T03:59:47.543Z,99.90
2022-11-08T04:01:49.264Z,99.90
2022-11-08T04:03:51.094Z,99.90
2022-11-08T04:05:52.706Z,99.90
2022-11-08T04:07:54.374Z,99.90
2022-11-08T04:09:56.062Z,99.90
2022-11-08T04:12:16.422Z,99.90
2022-11-08T04:14:36.471Z,99.90
2022-11-08T04:16:38.166Z,99.90
2022-11-08T04:18:58.354Z,99.90
2022-11-08T04:21:19.082Z,99.90
2022-11-08T04:23:20.714Z,99.90
2022-11-08T04:25:22.468Z,99.90
2022-11-08T04:27:24.069Z,99.90
2022-11-08T04:29:25.700Z,99.90
2022-11-08T04:31:27.317Z,99.90
2022-11-08T04:33:29.006Z,99.90
2022-11-08T04:35:31.054Z,99.90
2022-11-08T04:37:32.651Z,99.90
2022-11-08T04:39:34.318Z,99.90
2022-11-08T04:41:35.970Z,99.90
2022-11-08T04:43:38.118Z,99.90
2022-11-08T04:45:40.799Z,99.90
2022-11-08T04:47:48.303Z,99.90
2022-11-08T04:49:50.192Z,99.90
2022-11-08T04:51:51.863Z,99.90
2022-11-08T04:53:54.778Z,99.90
2022-11-08T04:56:03.675Z,99.90
2022-11-08T04:58:05.323Z,99.90
2022-11-08T05:00:07.214Z,99.90
2022-11-08T05:02:09.031Z,99.90
2022-11-08T05:04:10.739Z,99.90
2022-11-08T05:06:13.572Z,99.90
2022-11-08T05:08:15.458Z,99.90
2022-11-08T05:10:17.516Z,99.90
2022-11-08T05:12:19.086Z,99.90
2022-11-08T05:14:20.677Z,99.90
2022-11-08T05:16:26.642Z,99.90
2022-11-08T05:18:29.004Z,99.90
2022-11-08T05:20:49.241Z,99.90
2022-11-08T05:23:09.427Z,99.90
2022-11-08T05:25:11.061Z,99.90
2022-11-08T05:27:12.724Z,99.90
2022-11-08T05:29:15.072Z,99.90
2022-11-08T05:31:16.943Z,99.90
2022-11-08T05:33:18.588Z,99.90
2022-11-08T05:35:21.755Z,99.90
2022-11-08T05:37:23.381Z,99.90
2022-11-08T05:39:28.281Z,99.90
2022-11-08T05:41:33.500Z,99.90
2022-11-08T05:43:35.168Z,99.90
2022-11-08T05:45:36.922Z,99.90
2022-11-08T05:47:38.516Z,99.90
2022-11-08T05:49:40.583Z,99.90
2022-11-08T05:51:42.247Z,99.90
2022-11-08T05:53:44.217Z,99.90
2022-11-08T05:55:46.249Z,99.90
2022-11-08T05:57:47.847Z,99.90
2022-11-08T05:59:49.555Z,99.90
2022-11-08T06:01:51.247Z,99.90
2022-11-08T06:03:53.133Z,99.90
2022-11-08T06:05:54.871Z,99.90
2022-11-08T06:07:56.484Z,99.90
2022-11-08T06:09:58.072Z,99.90
2022-11-08T06:11:59.683Z,99.90
2022-11-08T06:14:01.374Z,99.90
2022-11-08T06:16:04.525Z,99.90
2022-11-08T06:18:06.188Z,99.90
2022-11-08T06:20:09.117Z,99.90
2022-11-08T06:22:10.779Z,99.90
2022-11-08T06:24:12.414Z,99.90
2022-11-08T06:26:14.377Z,99.90
2022-11-08T06:28:16.078Z,99.90
2022-11-08T06:30:17.825Z,99.90
2022-11-08T06:32:19.575Z,99.90
2022-11-08T06:34:21.735Z,99.90
2022-11-08T06:36:23.611Z,99.90
2022-11-08T06:38:25.306Z,99.90
2022-11-08T06:40:27.647Z,99.90
2022-11-08T06:42:29.267Z,99.90
2022-11-08T06:44:30.898Z,99.90
2022-11-08T06:46:32.526Z,99.90
2022-11-08T06:48:36.094Z,99.90
2022-11-08T06:50:37.897Z,99.90
2022-11-08T06:52:40.821Z,99.90
2022-11-08T06:54:42.459Z,99.90
2022-11-08T06:56:44.360Z,99.90
2022-11-08T06:58:45.996Z,99.90
2022-11-08T07:00:47.580Z,99.90
2022-11-08T07:02:53.338Z,99.90
2022-11-08T07:04:55.067Z,99.90
2022-11-08T07:06:56.903Z,99.90
2022-11-08T07:08:58.597Z,99.90
2022-11-08T07:11:00.201Z,99.90
2022-11-08T07:13:05.955Z,99.90
2022-11-08T07:15:07.788Z,99.90
2022-11-08T07:17:09.394Z,99.90
2022-11-08T07:19:11.037Z,99.90
2022-11-08T07:21:12.643Z,99.90
2022-11-08T07:23:14.338Z,99.90
2022-11-08T07:25:16.048Z,99.90
2022-11-08T07:27:17.676Z,99.90
2022-11-08T07:29:19.311Z,99.90
2022-11-08T07:31:21.599Z,99.90
2022-11-08T07:33:23.356Z,99.90
2022-11-08T07:35:25.742Z,99.90
2022-11-08T07:37:29.209Z,99.90
2022-11-08T07:39:30.897Z,99.90
2022-11-08T07:41:32.617Z,99.90
2022-11-08T07:43:34.242Z,99.90
2022-11-08T07:45:35.879Z,99.90
2022-11-08T07:47:37.866Z,99.90
2022-11-08T07:49:39.512Z,99.90
2022-11-08T07:51:41.116Z,99.90
2022-11-08T07:53:43.375Z,99.90
2022-11-08T07:55:46.237Z,99.90
2022-11-08T07:57:47.923Z,99.90
2022-11-08T07:59:49.536Z,99.90
2022-11-08T08:01:51.218Z,99.90
2022-11-08T08:03:52.850Z,99.90
2022-11-08T08:05:58.206Z,99.90
2022-11-08T08:08:02.515Z,99.90
2022-11-08T08:10:04.480Z,99.90
2022-11-08T08:12:06.543Z,99.90
2022-11-08T08:14:08.132Z,99.90
2022-11-08T08:16:09.825Z,99.90
2022-11-08T08:18:11.453Z,99.90
2022-11-08T08:20:13.222Z,99.90
2022-11-08T08:22:14.880Z,99.90
2022-11-08T08:24:16.560Z,99.90
2022-11-08T08:26:18.138Z,99.90
2022-11-08T08:28:19.793Z,99.90
2022-11-08T08:30:22.295Z,99.90
2022-11-08T08:32:26.260Z,99.90
2022-11-08T08:34:29.862Z,99.90
2022-11-08T08:36:31.463Z,99.90
2022-11-08T08:38:33.995Z,99.90
2022-11-08T08:40:35.647Z,99.90
2022-11-08T08:42:37.289Z,99.90
2022-11-08T08:44:38.900Z,99.90
2022-11-08T08:46:40.495Z,99.90
2022-11-08T08:48:42.274Z,99.90
2022-11-08T08:50:43.951Z,99.90
2022-11-08T08:52:45.561Z,99.90
2022-11-08T08:54:47.204Z,99.90
2022-11-08T08:56:49.057Z,99.90
2022-11-08T09:03:34.777Z,99.90
2022-11-08T09:05:36.652Z,99.90
2022-11-08T09:07:38.408Z,99.90
2022-11-08T09:09:40.110Z,99.90
2022-11-08T09:11:41.777Z,99.90
2022-11-08T09:13:43.428Z,99.90
2022-11-08T09:15:45.069Z,99.90
2022-11-08T09:17:46.671Z,99.90
2022-11-08T09:19:51.881Z,99.90
2022-11-08T09:21:56.191Z,99.90
2022-11-08T09:23:58.053Z,99.90
2022-11-08T09:26:00.373Z,99.90
2022-11-08T09:28:03.155Z,99.90
2022-11-08T09:30:05.928Z,99.90
2022-11-08T09:32:07.573Z,99.90
2022-11-08T09:34:09.315Z,99.90
2022-11-08T09:36:12.689Z,99.90
2022-11-08T09:38:14.565Z,99.90
2022-11-08T09:40:21.798Z,99.90
2022-11-08T09:42:52.703Z,99.90
2022-11-08T09:44:54.270Z,99.90
2022-11-08T09:46:57.398Z,99.90
2022-11-08T09:49:00.479Z,99.90
2022-11-08T09:51:06.989Z,99.90
2022-11-08T09:53:35.160Z,99.90
2022-11-08T09:55:42.094Z,99.90
2022-11-08T09:57:55.324Z,99.90
2022-11-08T10:00:00.056Z,99.90
2022-11-08T10:02:01.850Z,99.90
2022-11-08T10:04:06.335Z,99.90
2022-11-08T10:06:34.574Z,99.90
2022-11-08T10:08:43.608Z,99.90
2022-11-08T10:11:04.447Z,99.90
2022-11-08T10:13:15.166Z,99.90
2022-11-08T10:15:16.909Z,99.90
2022-11-08T10:17:21.618Z,99.90
2022-11-08T10:19:35.336Z,99.90
2022-11-08T10:21:58.154Z,99.90
2022-11-08T10:24:03.996Z,99.90
2022-11-08T10:26:09.315Z,99.90
2022-11-08T10:28:15.590Z,99.90
2022-11-08T10:30:19.031Z,99.90
2022-11-08T10:32:21.956Z,99.90
2022-11-08T10:34:28.558Z,99.90
2022-11-08T10:36:30.197Z,99.90
2022-11-08T10:38:39.594Z,99.90
2022-11-08T10:40:45.535Z,99.90
2022-11-08T10:42:51.482Z,99.90
2022-11-08T10:44:53.784Z,99.90
2022-11-08T10:47:11.252Z,99.90
2022-11-08T10:49:18.775Z,99.90
2022-11-08T10:51:20.415Z,99.90
2022-11-08T10:53:24.243Z,99.90
2022-11-08T10:55:36.727Z,99.90
2022-11-08T10:57:39.558Z,99.90
2022-11-08T10:59:41.778Z,99.90
2022-11-08T11:01:49.998Z,99.90
2022-11-08T11:03:52.459Z,99.90
2022-11-08T11:06:07.298Z,99.90
2022-11-08T11:08:08.917Z,99.90
2022-11-08T11:10:24.785Z,99.90
2022-11-08T11:12:26.405Z,99.90
2022-11-08T11:14:28.221Z,99.90
2022-11-08T11:16:29.844Z,99.90
2022-11-08T11:18:31.535Z,99.90
2022-11-08T11:20:33.324Z,99.90
2022-11-08T11:22:35.598Z,99.90
2022-11-08T11:24:46.168Z,99.90
2022-11-08T11:26:57.069Z,99.90
2022-11-08T11:29:04.557Z,99.90
2022-11-08T11:31:15.716Z,99.90
2022-11-08T11:33:25.156Z,99.90
2022-11-08T11:35:31.242Z,99.90
2022-11-08T11:37:48.568Z,99.90
2022-11-08T11:39:50.169Z,99.90
2022-11-08T11:41:56.531Z,99.90
2022-11-08T11:44:03.608Z,99.90
2022-11-08T11:46:17.240Z,99.90
2022-11-08T11:48:27.713Z,99.90
2022-11-08T11:50:32.460Z,99.90
2022-11-08T11:52:34.290Z,99.90
2022-11-08T11:54:35.912Z,99.90
2022-11-08T11:56:41.359Z,99.90
2022-11-08T11:58:44.085Z,99.90
2022-11-08T12:00:51.054Z,99.90
2022-11-08T12:03:11.419Z,99.90
2022-11-08T12:05:31.847Z,99.90
2022-11-08T12:07:35.116Z,99.90
2022-11-08T12:09:50.805Z,99.90
2022-11-08T12:11:55.488Z,99.90
2022-11-08T12:13:57.147Z,99.90
2022-11-08T12:16:06.647Z,99.90
2022-11-08T12:18:08.327Z,99.90
2022-11-08T12:20:26.605Z,99.90
2022-11-08T12:22:40.342Z,99.90
2022-11-08T12:24:56.992Z,99.90
2022-11-08T12:27:07.761Z,99.90
2022-11-08T12:29:12.519Z,99.90
2022-11-08T12:31:25.825Z,99.90
2022-11-08T12:33:45.814Z,99.90
2022-11-08T12:36:52.397Z,99.90
2022-11-08T12:39:23.186Z,99.90
2022-11-08T12:41:40.535Z,99.90
2022-11-08T12:44:00.260Z,99.90
2022-11-08T12:46:07.487Z,99.90
2022-11-08T12:48:27.702Z,99.90
2022-11-08T12:50:36.059Z,99.90
2022-11-08T12:54:41.067Z,99.90
2022-11-08T12:56:48.409Z,99.90
2022-11-08T12:58:52.570Z,99.90
2022-11-08T13:00:59.103Z,99.90
2022-11-08T13:03:23.916Z,99.90
2022-11-08T13:05:37.559Z,99.90
2022-11-08T13:07:52.970Z,99.90
2022-11-08T13:10:01.309Z,99.90
2022-11-08T13:12:03.181Z,99.90
2022-11-08T13:14:05.116Z,99.90
2022-11-08T13:16:21.419Z,99.90
2022-11-08T13:18:24.371Z,99.90
2022-11-08T13:20:38.276Z,99.90
2022-11-08T13:22:44.249Z,99.90
2022-11-08T13:24:46.019Z,99.90
2022-11-08T13:26:47.838Z,99.90
2022-11-08T13:28:50.852Z,99.90
2022-11-08T13:31:02.022Z,99.80
2022-11-08T13:33:26.699Z,99.50
2022-11-08T13:35:33.780Z,98.80
2022-11-08T13:37:43.920Z,99.30
2022-11-08T13:40:09.927Z,98.60
2022-11-08T13:42:18.275Z,97.80
2022-11-08T13:44:55.044Z,98.30
2022-11-08T13:46:56.782Z,98.40
2022-11-08T13:48:58.739Z,98.20
2022-11-08T13:51:23.596Z,97.40
2022-11-08T13:53:44.261Z,95.40
2022-11-08T13:55:53.404Z,95.60
2022-11-08T13:57:58.380Z,95.40
2022-11-08T14:00:00.267Z,95.50
2022-11-08T14:02:05.456Z,95.70
2022-11-08T14:04:33.538Z,95.30
2022-11-08T14:06:35.298Z,95.10
2022-11-08T14:08:59.594Z,95.60
2022-11-08T14:11:22.164Z,95.80
2022-11-08T14:13:38.049Z,95.90
2022-11-08T14:15:57.595Z,96.60
2022-11-08T14:18:07.199Z,96.80
2022-11-08T14:20:33.037Z,96.50
2022-11-08T14:22:34.877Z,96.30
2022-11-08T14:24:38.338Z,97.20
2022-11-08T14:26:46.152Z,97.20
2022-11-08T14:28:49.343Z,97.40
2022-11-08T14:30:51.378Z,96.90
2022-11-08T14:33:16.808Z,97.70
2022-11-08T14:35:26.138Z,97.50
2022-11-08T14:37:28.382Z,98.70
2022-11-08T14:39:36.264Z,99.00
2022-11-08T14:41:38.917Z,97.90
2022-11-08T14:43:45.717Z,97.50
2022-11-08T14:45:47.947Z,97.40
2022-11-08T14:47:59.040Z,98.10
2022-11-08T14:50:00.879Z,98.10
2022-11-08T14:52:15.569Z,98.20
2022-11-08T14:54:26.160Z,98.20
2022-11-08T14:56:38.320Z,98.30
2022-11-08T14:58:40.081Z,99.90
2022-11-08T15:00:44.097Z,99.90
2022-11-08T15:02:50.159Z,99.90
2022-11-08T15:04:52.355Z,99.90
2022-11-08T15:06:57.567Z,99.90
2022-11-08T15:09:00.500Z,99.90
2022-11-08T15:11:10.929Z,99.90
2022-11-08T15:13:12.764Z,99.90
2022-11-08T15:15:24.455Z,99.90
2022-11-08T15:17:44.773Z,99.90
2022-11-08T15:19:46.642Z,99.90
2022-11-08T15:21:51.702Z,99.90
2022-11-08T15:23:54.861Z,99.90
2022-11-08T15:25:59.058Z,99.90
2022-11-08T15:28:21.561Z,99.90
2022-11-08T15:30:41.759Z,99.90
2022-11-08T15:32:43.796Z,99.90
2022-11-08T15:34:46.214Z,99.90
2022-11-08T15:36:49.596Z,99.90
2022-11-08T15:38:51.468Z,99.90
2022-11-08T15:40:55.541Z,99.90
2022-11-08T15:42:58.315Z,99.90
2022-11-08T15:45:00.130Z,99.90
2022-11-08T15:47:01.846Z,99.90
2022-11-08T15:49:24.285Z,99.90
2022-11-08T15:51:26.338Z,99.90
2022-11-08T15:53:28.728Z,99.90
2022-11-08T15:55:39.471Z,99.90
2022-11-08T15:57:42.926Z,99.90
2022-11-08T15:59:44.679Z,99.90
2022-11-08T16:02:01.608Z,99.90
2022-11-08T16:04:03.580Z,99.90
2022-11-08T16:06:06.206Z,99.90
2022-11-08T16:08:07.929Z,99.90
2022-11-08T16:10:10.710Z,99.90
2022-11-08T16:12:14.842Z,99.90
2022-11-08T16:14:20.067Z,99.90
2022-11-08T16:16:21.796Z,99.90
2022-11-08T16:18:23.761Z,99.90
2022-11-08T16:20:30.889Z,99.90
2022-11-08T16:22:32.604Z,99.90
2022-11-08T16:24:34.343Z,99.90
2022-11-08T16:26:36.214Z,99.90
2022-11-08T16:28:38.882Z,99.90
2022-11-08T16:30:46.076Z,99.90
2022-11-08T16:32:48.306Z,99.90
2022-11-08T16:34:50.016Z,99.90
2022-11-08T16:36:52.115Z,99.90
2022-11-08T16:38:56.392Z,99.90
2022-11-08T16:40:58.196Z,99.90
2022-11-08T16:42:59.872Z,99.90
2022-11-08T16:45:01.562Z,99.90
2022-11-08T16:47:03.519Z,99.90
2022-11-08T16:49:07.068Z,99.90
2022-11-08T16:51:18.818Z,99.90
2022-11-08T16:53:21.680Z,99.90
2022-11-08T16:55:23.773Z,99.90
2022-11-08T16:57:34.537Z,99.90
2022-11-08T16:59:36.865Z,99.90
2022-11-08T17:01:39.879Z,99.90
2022-11-08T17:03:41.678Z,99.90
2022-11-08T17:05:43.448Z,99.90
2022-11-08T17:07:45.308Z,99.90
2022-11-08T17:09:47.278Z,99.90
2022-11-08T17:11:48.961Z,99.90
2022-11-08T17:13:52.754Z,99.90
2022-11-08T17:15:55.144Z,99.90
2022-11-08T17:17:58.644Z,99.90
2022-11-08T17:20:00.373Z,99.90
2022-11-08T17:22:02.063Z,99.90
2022-11-08T17:24:03.959Z,99.90
2022-11-08T17:26:07.085Z,99.90
2022-11-08T17:28:09.987Z,99.90
2022-11-08T17:30:13.670Z,99.90
2022-11-08T17:32:15.515Z,99.90
2022-11-08T17:34:17.294Z,99.90
2022-11-08T17:36:18.970Z,99.90
2022-11-08T17:38:20.692Z,99.90
2022-11-08T17:40:22.407Z,99.90
2022-11-08T17:42:24.324Z,99.90
2022-11-08T17:44:26.289Z,99.90
2022-11-08T17:46:27.965Z,99.90
2022-11-08T17:48:31.052Z,99.90
2022-11-08T17:50:32.774Z,99.90
2022-11-08T17:52:34.535Z,99.90
2022-11-08T17:54:36.238Z,99.90
2022-11-08T17:56:37.973Z,99.90
2022-11-08T17:58:41.058Z,99.90
2022-11-08T18:00:43.601Z,99.90
2022-11-08T18:02:45.810Z,99.90
2022-11-08T18:04:47.539Z,99.90
2022-11-08T18:06:49.650Z,99.90
2022-11-08T18:08:51.485Z,99.90
2022-11-08T18:10:53.238Z,99.90
2022-11-08T18:12:54.932Z,99.90
2022-11-08T18:14:56.631Z,99.90
2022-11-08T18:16:59.711Z,99.90
2022-11-08T18:19:01.586Z,99.90
2022-11-08T18:21:04.533Z,99.90
2022-11-08T18:23:06.282Z,99.90
2022-11-08T18:25:08.458Z,99.90
2022-11-08T18:27:10.396Z,99.90
2022-11-08T18:29:12.152Z,99.90
2022-11-08T18:31:18.891Z,99.90
2022-11-08T18:33:21.802Z,99.90
2022-11-08T18:35:23.870Z,99.90
2022-11-08T18:37:25.734Z,99.90
2022-11-08T18:39:27.483Z,99.90
2022-11-08T18:41:31.811Z,99.90
2022-11-08T18:43:34.411Z,99.90
2022-11-08T18:45:36.132Z,99.90
2022-11-08T18:47:37.925Z,99.90
2022-11-08T18:49:39.673Z,99.90
2022-11-08T18:51:41.438Z,99.90
2022-11-08T18:53:43.894Z,99.90
2022-11-08T18:55:45.698Z,99.90
2022-11-08T18:57:47.428Z,99.90
2022-11-08T18:59:49.127Z,99.90
2022-11-08T19:01:50.905Z,99.90
2022-11-08T19:03:52.720Z,99.90
2022-11-08T19:05:55.193Z,99.90
2022-11-08T19:07:56.956Z,99.90
2022-11-08T19:09:58.763Z,99.90
2022-11-08T19:12:05.511Z,99.90
2022-11-08T19:14:07.701Z,99.90
2022-11-08T19:16:13.713Z,99.90
2022-11-08T19:18:15.606Z,99.90
2022-11-08T19:20:17.365Z,99.90
2022-11-08T19:22:19.115Z,99.90
2022-11-08T19:24:20.890Z,99.90
2022-11-08T19:26:25.500Z,99.90
2022-11-08T19:28:32.686Z,99.90
2022-11-08T19:30:34.800Z,99.90
2022-11-08T19:32:36.575Z,99.90
2022-11-08T19:34:38.385Z,99.90
2022-11-08T19:36:49.028Z,99.90
2022-11-08T19:38:54.934Z,99.90
2022-11-08T19:41:00.225Z,99.90
2022-11-08T19:43:03.064Z,99.90
2022-11-08T19:45:05.415Z,99.90
2022-11-08T19:47:07.154Z,99.90
2022-11-08T19:49:10.121Z,99.90
2022-11-08T19:51:14.843Z,99.90
2022-11-08T19:53:16.587Z,99.90
2022-11-08T19:55:18.309Z,99.90
2022-11-08T19:57:20.062Z,99.90
2022-11-08T19:59:21.915Z,99.90
2022-11-08T20:01:29.768Z,99.90
2022-11-08T20:03:32.170Z,99.90
2022-11-08T20:05:33.863Z,99.90
2022-11-08T20:07:35.677Z,99.90
2022-11-08T20:09:37.384Z,99.90
2022-11-08T20:11:41.718Z,99.90
2022-11-08T20:13:43.851Z,99.90
2022-11-08T20:15:45.597Z,99.90
2022-11-08T20:17:47.364Z,99.90
2022-11-08T20:19:50.576Z,99.90
2022-11-08T20:21:56.683Z,99.90
2022-11-08T20:23:58.442Z,99.90
2022-11-08T20:26:04.943Z,99.90
2022-11-08T20:28:07.048Z,99.90
2022-11-08T20:30:09.419Z,99.90
2022-11-08T20:32:11.439Z,99.90
2022-11-08T20:34:13.398Z,99.90
2022-11-08T20:36:18.381Z,99.90
2022-11-08T20:38:20.457Z,99.90
2022-11-08T20:40:22.402Z,99.90
2022-11-08T20:42:24.182Z,99.90
2022-11-08T20:44:25.931Z,99.90
2022-11-08T20:46:27.864Z,99.90
2022-11-08T20:48:29.851Z,99.90
2022-11-08T20:50:31.656Z,99.90
2022-11-08T20:52:33.394Z,99.90
2022-11-08T20:54:37.780Z,99.90
2022-11-08T20:56:41.634Z,99.90
2022-11-08T20:58:44.610Z,99.90
2022-11-08T21:00:57.961Z,99.90
2022-11-08T21:03:00.224Z,99.90
2022-11-08T21:05:01.953Z,99.90
2022-11-08T21:09:37.486Z,99.90
2022-11-08T21:11:47.406Z,99.90
2022-11-08T21:13:49.468Z,99.90
2022-11-08T21:15:52.050Z,99.90
2022-11-08T21:17:53.782Z,99.90
2022-11-08T21:19:55.643Z,99.90
2022-11-08T21:22:14.994Z,99.90
2022-11-08T21:24:17.241Z,99.90
2022-11-08T21:26:19.469Z,99.90
2022-11-08T21:28:21.404Z,99.90
2022-11-08T21:30:23.178Z,99.90
2022-11-08T21:32:24.891Z,99.90
2022-11-08T21:34:32.023Z,99.90
2022-11-08T21:36:34.123Z,99.90
2022-11-08T21:38:40.066Z,99.90
2022-11-08T21:40:41.765Z,99.90
2022-11-08T21:42:48.425Z,99.90
2022-11-08T21:44:50.565Z,99.90
2022-11-08T21:46:52.309Z,99.90
2022-11-08T21:48:59.108Z,99.90
2022-11-08T21:51:04.183Z,99.90
2022-11-08T21:53:07.645Z,99.90
2022-11-08T21:55:09.681Z,99.90
2022-11-08T21:57:11.392Z,99.90
2022-11-08T21:59:13.298Z,99.90
2022-11-08T22:01:15.228Z,99.90
2022-11-08T22:03:17.120Z,99.90
2022-11-08T22:05:19.004Z,99.90
2022-11-08T22:07:20.839Z,99.90
2022-11-08T22:09:22.623Z,99.90
2022-11-08T22:11:24.347Z,99.90
2022-11-08T22:13:26.049Z,99.90
2022-11-08T22:15:27.936Z,99.90
2022-11-08T22:17:29.666Z,99.90
2022-11-08T22:19:31.580Z,99.90
2022-11-08T22:21:41.230Z,99.90
2022-11-08T22:23:43.268Z,99.90
2022-11-08T22:25:44.958Z,99.90
2022-11-08T22:27:46.687Z,99.90
2022-11-08T22:29:48.438Z,99.90
2022-11-08T22:31:50.278Z,99.90
2022-11-08T22:33:52.002Z,99.90
2022-11-08T22:35:53.901Z,99.90
2022-11-08T22:37:55.652Z,99.90
2022-11-08T22:39:57.452Z,99.90
2022-11-08T22:41:59.306Z,99.90
2022-11-08T22:44:01.224Z,99.90
2022-11-08T22:46:03.489Z,99.90
2022-11-08T22:48:05.698Z,99.90
2022-11-08T22:50:07.664Z,99.90
2022-11-08T22:52:09.396Z,99.90
2022-11-08T22:54:11.314Z,99.90
2022-11-08T22:56:13.036Z,99.90
2022-11-08T22:58:14.806Z,99.90
2022-11-08T23:00:16.692Z,99.90
2022-11-08T23:02:18.452Z,99.90
2022-11-08T23:04:20.534Z,99.90
2022-11-08T23:06:22.247Z,99.90
2022-11-08T23:08:26.097Z,99.90
2022-11-08T23:10:27.863Z,99.90
2022-11-08T23:12:48.401Z,99.90
2022-11-08T23:15:09.065Z,99.90
2022-11-08T23:17:10.810Z,99.90
2022-11-08T23:19:36.659Z,99.90
2022-11-08T23:21:57.073Z,99.90
2022-11-08T23:24:17.317Z,99.90
2022-11-08T23:26:38.987Z,99.90
2022-11-08T23:28:59.203Z,99.90
2022-11-08T23:31:22.716Z,99.90
2022-11-08T23:33:24.426Z,99.90
2022-11-08T23:35:26.317Z,99.90
2022-11-08T23:37:28.243Z,99.90
2022-11-08T23:39:29.989Z,99.90
2022-11-08T23:41:50.468Z,99.90
2022-11-08T23:44:10.937Z,99.90
2022-11-08T23:46:12.907Z,99.90
2022-11-08T23:48:14.622Z,99.90
2022-11-08T23:50:16.379Z,99.90
2022-11-08T23:52:18.100Z,99.90
2022-11-08T23:54:19.921Z,99.90
2022-11-08T23:56:26.593Z,99.90
2022-11-08T23:58:28.376Z,99.90
